createdAt,value
2019-03-15T00:00:07.603Z,1.62
2019-03-15T00:05:02.203Z,1.32
2019-03-15T00:07:30.335Z,0.65
2019-03-15T00:09:57.799Z,0.70
2019-03-15T00:12:26.217Z,0.80
2019-03-15T00:14:53.729Z,1.02
2019-03-15T00:17:20.934Z,1.10
2019-03-15T00:19:48.745Z,1.17
2019-03-15T00:22:16.584Z,1.32
2019-03-15T00:24:44.815Z,1.25
2019-03-15T00:27:12.417Z,0.90
2019-03-15T00:29:40.338Z,0.90
2019-03-15T00:32:07.848Z,0.85
2019-03-15T00:34:35.471Z,0.60
2019-03-15T00:37:03.488Z,0.88
2019-03-15T00:39:30.894Z,0.90
2019-03-15T00:41:58.890Z,0.60
2019-03-15T00:44:26.346Z,1.07
2019-03-15T00:46:53.852Z,1.20
2019-03-15T00:49:21.768Z,1.60
2019-03-15T00:51:48.995Z,1.52
2019-03-15T00:54:16.809Z,1.22
2019-03-15T00:56:44.729Z,0.80
2019-03-15T00:59:12.233Z,1.10
2019-03-15T01:01:39.758Z,1.10
2019-03-15T01:04:09.431Z,1.32
2019-03-15T01:06:38.897Z,1.90
2019-03-15T01:09:06.258Z,1.12
2019-03-15T01:11:34.338Z,1.30
2019-03-15T01:14:02.044Z,1.98
2019-03-15T01:16:29.654Z,1.22
2019-03-15T01:18:57.693Z,1.15
2019-03-15T01:21:24.942Z,1.47
2019-03-15T01:23:52.425Z,0.60
2019-03-15T01:26:20.037Z,1.12
2019-03-15T01:28:47.555Z,1.57
2019-03-15T01:31:15.236Z,1.20
2019-03-15T01:33:43.177Z,0.95
2019-03-15T01:36:10.891Z,0.95
2019-03-15T01:38:38.407Z,1.62
2019-03-15T01:41:06.360Z,1.07
2019-03-15T01:43:33.986Z,0.95
2019-03-15T01:46:01.582Z,1.45
2019-03-15T01:48:29.231Z,2.37
2019-03-15T01:50:56.886Z,1.05
2019-03-15T01:53:24.565Z,0.90
2019-03-15T01:55:51.776Z,1.15
2019-03-15T01:58:19.601Z,1.75
2019-03-15T02:00:47.198Z,1.90
2019-03-15T02:03:14.913Z,1.20
2019-03-15T02:05:42.626Z,1.10
2019-03-15T02:08:10.816Z,1.80
2019-03-15T02:10:38.489Z,1.42
2019-03-15T02:13:05.713Z,1.57
2019-03-15T02:15:33.206Z,1.65
2019-03-15T02:18:01.654Z,1.87
2019-03-15T02:20:29.275Z,1.75
2019-03-15T02:22:56.881Z,1.57
2019-03-15T02:25:24.443Z,1.80
2019-03-15T02:27:52.035Z,1.98
2019-03-15T02:30:19.545Z,1.45
2019-03-15T02:32:47.045Z,1.70
2019-03-15T02:35:15.428Z,1.70
2019-03-15T02:37:43.079Z,1.80
2019-03-15T02:40:10.457Z,1.87
2019-03-15T02:42:37.773Z,2.05
2019-03-15T02:45:06.323Z,1.27
2019-03-15T02:47:34.023Z,2.15
2019-03-15T02:50:02.188Z,2.00
2019-03-15T02:52:29.424Z,2.12
2019-03-15T02:54:56.931Z,2.05
2019-03-15T02:57:24.163Z,2.15
2019-03-15T02:59:52.235Z,1.65
2019-03-15T03:02:20.499Z,2.33
2019-03-15T03:04:48.196Z,1.92
2019-03-15T03:07:17.261Z,2.17
2019-03-15T03:09:44.808Z,3.02
2019-03-15T03:12:12.520Z,2.72
2019-03-15T03:14:40.433Z,2.05
2019-03-15T03:17:08.022Z,2.72
2019-03-15T03:19:35.303Z,2.20
2019-03-15T03:22:03.372Z,2.47
2019-03-15T03:24:32.497Z,2.65
2019-03-15T03:26:59.977Z,2.75
2019-03-15T03:29:27.596Z,1.75
2019-03-15T03:31:55.185Z,1.77
2019-03-15T03:34:22.830Z,2.30
2019-03-15T03:36:51.649Z,3.02
2019-03-15T03:39:21.208Z,3.00
2019-03-15T03:41:48.929Z,1.25
2019-03-15T03:44:16.345Z,2.70
2019-03-15T03:46:43.538Z,2.20
2019-03-15T03:49:10.963Z,2.10
2019-03-15T03:51:38.544Z,2.40
2019-03-15T03:54:06.540Z,2.25
2019-03-15T03:56:33.973Z,2.10
2019-03-15T03:59:01.629Z,1.87
2019-03-15T04:01:29.714Z,2.83
2019-03-15T04:03:56.993Z,2.22
2019-03-15T04:06:25.073Z,2.20
2019-03-15T04:08:52.287Z,2.15
2019-03-15T04:11:20.389Z,2.45
2019-03-15T04:13:48.317Z,1.50
2019-03-15T04:16:15.953Z,1.60
2019-03-15T04:18:43.177Z,2.42
2019-03-15T04:21:10.820Z,1.30
2019-03-15T04:23:38.472Z,1.45
2019-03-15T04:26:06.392Z,1.60
2019-03-15T04:28:34.171Z,1.17
2019-03-15T04:31:01.859Z,1.82
2019-03-15T04:33:29.595Z,2.30
2019-03-15T04:35:57.279Z,1.32
2019-03-15T04:38:25.018Z,1.87
2019-03-15T04:40:52.779Z,0.95
2019-03-15T04:43:20.838Z,1.40
2019-03-15T04:45:48.928Z,1.95
2019-03-15T04:48:16.521Z,1.20
2019-03-15T04:50:44.134Z,2.08
2019-03-15T04:53:11.524Z,2.10
2019-03-15T04:55:39.262Z,1.60
2019-03-15T04:58:07.069Z,1.10
2019-03-15T05:00:34.694Z,1.72
2019-03-15T05:03:02.341Z,1.55
2019-03-15T05:05:30.478Z,1.12
2019-03-15T05:07:58.517Z,1.50
2019-03-15T05:10:25.892Z,1.60
2019-03-15T05:12:53.714Z,1.20
2019-03-15T05:15:21.419Z,1.60
2019-03-15T05:17:54.523Z,1.15
2019-03-15T05:20:22.530Z,1.70
2019-03-15T05:22:50.155Z,1.25
2019-03-15T05:25:18.484Z,1.20
2019-03-15T05:27:46.452Z,1.02
2019-03-15T05:30:14.086Z,0.90
2019-03-15T05:32:41.709Z,1.20
2019-03-15T05:35:09.259Z,1.80
2019-03-15T05:37:36.777Z,2.45
2019-03-15T05:40:05.185Z,1.60
2019-03-15T05:42:32.399Z,2.62
2019-03-15T05:44:59.773Z,1.65
2019-03-15T05:47:27.528Z,1.50
2019-03-15T05:49:55.319Z,1.57
2019-03-15T05:52:23.389Z,1.57
2019-03-15T05:54:50.653Z,1.20
2019-03-15T05:57:19.155Z,1.40
2019-03-15T05:59:47.154Z,1.60
2019-03-15T06:02:15.702Z,1.20
2019-03-15T06:04:43.465Z,1.65
2019-03-15T06:07:11.014Z,1.30
2019-03-15T06:09:38.506Z,1.50
2019-03-15T06:12:06.124Z,1.70
2019-03-15T06:14:33.376Z,1.50
2019-03-15T06:17:01.294Z,1.60
2019-03-15T06:19:29.001Z,1.17
2019-03-15T06:21:56.632Z,1.62
2019-03-15T06:24:23.999Z,2.25
2019-03-15T06:26:53.182Z,1.75
2019-03-15T06:29:21.068Z,1.98
2019-03-15T06:31:49.022Z,1.80
2019-03-15T06:34:16.928Z,2.40
2019-03-15T06:36:44.167Z,2.00
2019-03-15T06:39:11.883Z,1.40
2019-03-15T06:41:39.850Z,1.35
2019-03-15T06:44:08.250Z,1.60
2019-03-15T06:46:35.895Z,2.60
2019-03-15T06:49:03.288Z,2.22
2019-03-15T06:51:31.141Z,2.30
2019-03-15T06:54:10.933Z,2.12
2019-03-15T06:56:28.356Z,2.62
2019-03-15T06:58:55.842Z,2.15
2019-03-15T07:01:24.168Z,2.45
2019-03-15T07:03:51.978Z,2.30
2019-03-15T07:06:19.471Z,2.10
2019-03-15T07:08:47.098Z,1.32
2019-03-15T07:11:15.730Z,2.10
2019-03-15T07:13:43.356Z,1.25
2019-03-15T07:16:11.025Z,1.62
2019-03-15T07:18:38.548Z,1.80
2019-03-15T07:21:06.124Z,1.92
2019-03-15T07:23:33.612Z,2.30
2019-03-15T07:26:01.566Z,1.80
2019-03-15T07:28:28.943Z,2.10
2019-03-15T07:30:56.161Z,2.47
2019-03-15T07:33:23.859Z,2.08
2019-03-15T07:35:52.534Z,2.65
2019-03-15T07:38:21.014Z,2.10
2019-03-15T07:40:48.953Z,2.90
2019-03-15T07:43:19.824Z,3.25
2019-03-15T07:45:46.830Z,2.60
2019-03-15T07:48:22.478Z,3.08
2019-03-15T07:50:44.245Z,2.90
2019-03-15T07:53:11.965Z,2.80
2019-03-15T07:55:39.217Z,2.67
2019-03-15T07:58:07.461Z,3.05
2019-03-15T08:00:36.798Z,3.27
2019-03-15T08:03:04.364Z,3.10
2019-03-15T08:05:31.920Z,3.42
2019-03-15T08:08:00.031Z,3.35
2019-03-15T08:10:30.340Z,2.98
2019-03-15T08:12:58.019Z,3.17
2019-03-15T08:15:26.038Z,3.60
2019-03-15T08:17:54.345Z,2.95
2019-03-15T08:20:23.929Z,3.08
2019-03-15T08:22:51.589Z,3.20
2019-03-15T08:25:18.826Z,2.62
2019-03-15T08:27:46.544Z,2.05
2019-03-15T08:30:13.956Z,2.08
2019-03-15T08:32:43.385Z,2.10
2019-03-15T08:35:12.069Z,1.22
2019-03-15T08:37:39.709Z,2.00
2019-03-15T08:40:08.546Z,1.70
2019-03-15T08:42:36.152Z,0.50
2019-03-15T08:45:05.045Z,1.22
2019-03-15T08:47:32.783Z,1.20
2019-03-15T08:50:00.490Z,1.15
2019-03-15T08:52:28.505Z,0.90
2019-03-15T08:55:05.085Z,0.35
2019-03-15T08:57:25.425Z,0.60
2019-03-15T08:59:57.425Z,0.50
2019-03-15T09:02:22.883Z,0.50
2019-03-15T09:04:50.628Z,0.65
2019-03-15T09:07:18.428Z,0.53
2019-03-15T09:09:46.032Z,0.50
2019-03-15T09:12:13.934Z,0.60
2019-03-15T09:14:41.377Z,0.70
2019-03-15T09:17:08.944Z,0.47
2019-03-15T09:19:36.629Z,0.80
2019-03-15T09:22:04.269Z,0.57
2019-03-15T09:24:32.171Z,0.50
2019-03-15T09:26:59.923Z,0.70
2019-03-15T09:29:27.474Z,0.65
2019-03-15T09:32:05.243Z,0.80
2019-03-15T09:34:24.585Z,0.80
2019-03-15T09:36:52.545Z,0.70
2019-03-15T09:39:19.738Z,0.30
2019-03-15T09:41:47.423Z,0.60
2019-03-15T09:44:15.363Z,0.70
2019-03-15T09:46:42.824Z,0.53
2019-03-15T09:49:10.414Z,0.70
2019-03-15T09:51:39.257Z,0.60
2019-03-15T09:54:07.412Z,0.60
2019-03-15T09:56:34.802Z,0.53
2019-03-15T09:59:02.480Z,0.70
2019-03-15T10:01:35.082Z,0.50
2019-03-15T10:03:59.934Z,0.68
2019-03-15T10:06:28.608Z,0.33
2019-03-15T10:08:56.086Z,0.50
2019-03-15T10:11:23.485Z,0.40
2019-03-15T10:13:51.111Z,0.40
2019-03-15T10:16:18.419Z,0.35
2019-03-15T10:18:45.897Z,0.40
2019-03-15T10:21:13.375Z,0.15
2019-03-15T10:23:41.060Z,0.40
2019-03-15T10:26:09.249Z,0.40
2019-03-15T10:28:36.907Z,0.50
2019-03-15T10:31:04.621Z,0.30
2019-03-15T10:33:32.142Z,0.30
2019-03-15T10:36:00.178Z,0.30
2019-03-15T10:38:27.697Z,0.40
2019-03-15T10:40:55.322Z,0.30
2019-03-15T10:43:22.827Z,0.57
2019-03-15T10:45:51.500Z,0.40
2019-03-15T10:48:25.067Z,0.20
2019-03-15T10:50:48.548Z,0.35
2019-03-15T10:53:16.552Z,0.35
2019-03-15T10:55:44.023Z,0.65
2019-03-15T10:58:11.589Z,0.40
2019-03-15T11:00:39.789Z,0.40
2019-03-15T11:03:09.271Z,0.40
2019-03-15T11:05:36.916Z,0.25
2019-03-15T11:08:04.306Z,0.60
2019-03-15T11:10:31.724Z,0.50
2019-03-15T11:12:59.274Z,0.70
2019-03-15T11:15:26.550Z,0.70
2019-03-15T11:17:53.982Z,0.70
2019-03-15T11:20:21.979Z,0.80
2019-03-15T11:22:49.511Z,1.50
2019-03-15T11:25:17.604Z,3.45
2019-03-15T11:27:46.365Z,1.20
2019-03-15T11:30:14.060Z,1.55
2019-03-15T11:32:41.609Z,1.40
2019-03-15T11:35:11.041Z,0.93
2019-03-15T11:37:38.586Z,0.88
2019-03-15T11:40:06.726Z,0.90
2019-03-15T11:42:33.992Z,0.90
2019-03-15T11:45:02.044Z,0.60
2019-03-15T11:47:29.568Z,0.50
2019-03-15T11:49:57.259Z,0.60
2019-03-15T11:52:24.925Z,0.57
2019-03-15T11:54:53.641Z,0.60
2019-03-15T11:57:20.838Z,0.50
2019-03-15T11:59:48.046Z,0.40
2019-03-15T12:02:15.805Z,0.50
2019-03-15T12:04:43.467Z,0.30
2019-03-15T12:07:11.080Z,0.60
2019-03-15T12:09:40.980Z,0.40
2019-03-15T12:12:09.410Z,0.50
2019-03-15T12:14:41.118Z,0.50
2019-03-15T12:17:06.891Z,0.20
2019-03-15T12:19:34.748Z,0.30
2019-03-15T12:22:06.478Z,0.45
2019-03-15T12:24:31.910Z,0.17
2019-03-15T12:27:00.122Z,0.40
2019-03-15T12:29:27.838Z,0.60
2019-03-15T12:31:55.415Z,0.68
2019-03-15T12:34:23.505Z,0.50
2019-03-15T12:36:51.524Z,0.45
2019-03-15T12:39:19.738Z,0.50
2019-03-15T12:41:47.915Z,0.40
2019-03-15T12:44:15.490Z,0.50
2019-03-15T12:46:43.194Z,0.40
2019-03-15T12:49:10.891Z,0.50
2019-03-15T12:51:38.598Z,0.70
2019-03-15T12:54:06.247Z,0.60
2019-03-15T12:56:33.681Z,0.78
2019-03-15T12:59:01.745Z,0.57
2019-03-15T13:01:29.059Z,0.50
2019-03-15T13:03:56.300Z,0.35
2019-03-15T13:06:24.114Z,0.60
2019-03-15T13:08:52.079Z,0.70
2019-03-15T13:11:19.867Z,0.37
2019-03-15T13:13:50.762Z,0.50
2019-03-15T13:16:17.845Z,0.40
2019-03-15T13:18:45.484Z,0.30
2019-03-15T13:21:14.348Z,0.55
2019-03-15T13:23:44.193Z,0.47
2019-03-15T13:26:11.929Z,0.30
2019-03-15T13:28:39.599Z,0.40
2019-03-15T13:31:07.138Z,0.30
2019-03-15T13:33:35.056Z,0.30
2019-03-15T13:36:23.110Z,0.25
2019-03-15T13:38:55.596Z,0.30
2019-03-15T13:41:27.908Z,0.30
2019-03-15T13:43:56.217Z,0.40
2019-03-15T13:46:26.622Z,0.30
2019-03-15T13:48:54.367Z,0.30
2019-03-15T13:51:22.926Z,0.30
2019-03-15T13:53:51.148Z,0.40
2019-03-15T13:56:27.770Z,0.13
2019-03-15T13:58:57.743Z,0.10
2019-03-15T14:01:26.415Z,0.20
2019-03-15T14:03:54.592Z,0.10
2019-03-15T14:06:22.217Z,0.30
2019-03-15T14:08:49.733Z,0.20
2019-03-15T14:11:17.235Z,0.20
2019-03-15T14:13:49.239Z,0.20
2019-03-15T14:16:17.582Z,0.30
2019-03-15T14:18:44.992Z,0.35
2019-03-15T14:21:14.115Z,0.30
2019-03-15T14:23:41.340Z,0.30
2019-03-15T14:26:08.942Z,0.30
2019-03-15T14:28:36.428Z,0.20
2019-03-15T14:31:04.311Z,0.30
2019-03-15T14:33:31.853Z,0.30
2019-03-15T14:35:59.670Z,0.30
2019-03-15T14:38:28.265Z,0.30
2019-03-15T14:40:56.081Z,0.20
2019-03-15T14:43:24.368Z,0.30
2019-03-15T14:45:51.679Z,0.20
2019-03-15T14:48:19.328Z,0.30
2019-03-15T14:50:48.323Z,0.20
2019-03-15T14:53:15.549Z,0.10
2019-03-15T14:55:43.218Z,0.20
2019-03-15T14:58:11.107Z,0.30
2019-03-15T15:00:38.685Z,0.30
2019-03-15T15:03:06.440Z,0.30
2019-03-15T15:05:35.542Z,0.30
2019-03-15T15:08:03.720Z,0.20
2019-03-15T15:10:31.286Z,0.30
2019-03-15T15:12:58.897Z,0.30
2019-03-15T15:15:27.843Z,0.42
2019-03-15T15:17:56.963Z,0.30
2019-03-15T15:20:25.409Z,0.20
2019-03-15T15:22:53.040Z,0.33
2019-03-15T15:25:20.653Z,0.20
2019-03-15T15:27:48.428Z,0.50
2019-03-15T15:30:16.788Z,0.30
2019-03-15T15:32:44.447Z,0.15
2019-03-15T15:35:12.628Z,0.25
2019-03-15T15:37:39.815Z,0.40
2019-03-15T15:40:08.931Z,0.30
2019-03-15T15:42:36.196Z,0.40
2019-03-15T15:45:04.246Z,0.20
2019-03-15T15:47:32.151Z,0.30
2019-03-15T15:49:59.390Z,0.30
2019-03-15T15:52:27.085Z,0.20
2019-03-15T15:54:54.485Z,0.28
2019-03-15T15:57:21.964Z,0.10
2019-03-15T15:59:50.957Z,0.20
2019-03-15T16:02:18.870Z,0.30
2019-03-15T16:04:46.594Z,0.20
2019-03-15T16:07:14.110Z,0.30
2019-03-15T16:09:41.964Z,0.23
2019-03-15T16:12:09.555Z,0.10
2019-03-15T16:14:37.843Z,0.30
2019-03-15T16:17:06.188Z,0.23
2019-03-15T16:19:34.885Z,0.20
2019-03-15T16:22:02.594Z,0.23
2019-03-15T16:24:30.260Z,0.20
2019-03-15T16:26:57.805Z,0.20
2019-03-15T16:29:25.043Z,0.20
2019-03-15T16:31:53.026Z,0.30
2019-03-15T16:34:22.129Z,0.40
2019-03-15T16:36:49.997Z,0.25
2019-03-15T16:39:17.833Z,0.35
2019-03-15T16:41:45.391Z,0.40
2019-03-15T16:44:12.940Z,0.33
2019-03-15T16:46:41.512Z,0.40
2019-03-15T16:49:11.098Z,0.20
2019-03-15T16:51:39.096Z,0.20
2019-03-15T16:54:06.949Z,0.30
2019-03-15T16:56:34.919Z,0.25
2019-03-15T16:59:03.510Z,0.30
2019-03-15T17:01:31.136Z,0.25
2019-03-15T17:03:58.862Z,0.20
2019-03-15T17:06:27.339Z,0.30
2019-03-15T17:08:54.568Z,0.40
2019-03-15T17:11:23.000Z,0.40
2019-03-15T17:13:50.916Z,0.30
2019-03-15T17:16:18.493Z,0.28
2019-03-15T17:18:46.332Z,0.40
2019-03-15T17:21:14.082Z,0.20
2019-03-15T17:23:41.719Z,0.30
2019-03-15T17:26:13.271Z,0.45
2019-03-15T17:28:40.852Z,0.40
2019-03-15T17:31:10.113Z,0.80
2019-03-15T17:33:38.819Z,0.40
2019-03-15T17:36:06.629Z,0.37
2019-03-15T17:38:33.891Z,0.65
2019-03-15T17:41:01.493Z,0.30
2019-03-15T17:43:29.601Z,0.30
2019-03-15T17:45:57.119Z,0.30
2019-03-15T17:48:24.306Z,0.33
2019-03-15T17:50:52.260Z,0.45
2019-03-15T17:53:22.434Z,0.37
2019-03-15T17:55:50.421Z,0.40
2019-03-15T17:58:18.353Z,0.40
2019-03-15T18:00:49.559Z,0.28
2019-03-15T18:03:21.735Z,0.50
2019-03-15T18:05:49.015Z,0.30
2019-03-15T18:08:17.938Z,0.20
2019-03-15T18:10:45.544Z,0.33
2019-03-15T18:13:13.832Z,0.30
2019-03-15T18:15:41.063Z,0.40
2019-03-15T18:18:10.377Z,0.68
2019-03-15T18:20:39.209Z,0.30
2019-03-15T18:23:09.235Z,0.50
2019-03-15T18:25:39.033Z,0.40
2019-03-15T18:28:06.766Z,0.50
2019-03-15T18:30:34.803Z,0.50
2019-03-15T18:33:02.715Z,0.50
2019-03-15T18:35:34.201Z,0.50
2019-03-15T18:38:02.048Z,0.40
2019-03-15T18:40:29.472Z,0.40
2019-03-15T18:42:57.834Z,0.50
2019-03-15T18:45:25.489Z,0.40
2019-03-15T18:47:53.411Z,0.30
2019-03-15T18:50:21.138Z,0.35
2019-03-15T18:52:48.921Z,0.50
2019-03-15T18:55:16.931Z,0.40
2019-03-15T18:57:46.627Z,0.28
2019-03-15T19:00:15.942Z,0.50
2019-03-15T19:02:45.165Z,0.33
2019-03-15T19:05:13.929Z,0.30
2019-03-15T19:07:41.404Z,0.47
2019-03-15T19:10:10.260Z,0.30
2019-03-15T19:12:41.248Z,0.40
2019-03-15T19:15:09.677Z,0.35
2019-03-15T19:17:37.911Z,0.60
2019-03-15T19:20:06.681Z,0.37
2019-03-15T19:22:34.438Z,0.30
2019-03-15T19:25:03.396Z,0.50
2019-03-15T19:27:31.597Z,0.37
2019-03-15T19:29:59.925Z,0.37
2019-03-15T19:32:29.820Z,0.60
2019-03-15T19:34:57.310Z,0.40
2019-03-15T19:37:25.059Z,0.40
2019-03-15T19:39:52.720Z,0.40
2019-03-15T19:42:22.858Z,0.60
2019-03-15T19:44:51.042Z,0.40
2019-03-15T19:47:25.275Z,0.30
2019-03-15T19:49:54.559Z,0.30
2019-03-15T19:52:22.205Z,0.40
2019-03-15T19:55:00.543Z,0.50
2019-03-15T19:57:26.992Z,0.40
2019-03-15T20:02:27.878Z,0.40
2019-03-15T20:04:59.244Z,0.57
2019-03-15T20:07:38.645Z,0.23
2019-03-15T20:10:09.651Z,0.30
2019-03-15T20:12:38.505Z,0.30
2019-03-15T20:15:06.686Z,0.40
2019-03-15T20:17:39.730Z,0.45
2019-03-15T20:20:10.743Z,0.47
2019-03-15T20:22:38.773Z,0.40
2019-03-15T20:25:09.664Z,0.30
2019-03-15T20:27:37.273Z,0.35
2019-03-15T20:30:05.501Z,0.40
2019-03-15T20:32:34.651Z,0.45
2019-03-15T20:35:02.463Z,0.37
2019-03-15T20:37:29.915Z,0.50
2019-03-15T20:40:18.463Z,0.82
2019-03-15T20:42:46.357Z,0.30
2019-03-15T20:45:16.858Z,0.30
2019-03-15T20:47:44.434Z,0.30
2019-03-15T20:50:13.336Z,0.40
2019-03-15T20:52:42.701Z,0.40
2019-03-15T20:55:17.434Z,0.30
2019-03-15T20:57:45.583Z,0.30
2019-03-15T21:00:14.984Z,0.40
2019-03-15T21:02:43.837Z,0.40
2019-03-15T21:05:15.501Z,0.30
2019-03-15T21:07:43.660Z,0.50
2019-03-15T21:10:16.508Z,0.40
2019-03-15T21:12:44.814Z,0.37
2019-03-15T21:15:14.422Z,0.30
2019-03-15T21:17:43.358Z,0.55
2019-03-15T21:20:12.881Z,0.50
2019-03-15T21:22:40.113Z,0.35
2019-03-15T21:25:07.687Z,0.50
2019-03-15T21:27:35.198Z,0.40
2019-03-15T21:30:07.890Z,0.40
2019-03-15T21:32:35.354Z,0.30
2019-03-15T21:35:03.938Z,0.40
2019-03-15T21:37:31.883Z,0.25
2019-03-15T21:39:59.571Z,0.40
2019-03-15T21:42:26.793Z,0.47
2019-03-15T21:44:54.724Z,0.37
2019-03-15T21:47:22.572Z,0.30
2019-03-15T21:49:51.707Z,0.40
2019-03-15T21:52:20.207Z,0.30
2019-03-15T21:54:47.901Z,0.20
2019-03-15T21:57:16.458Z,0.30
2019-03-15T21:59:44.029Z,0.30
2019-03-15T22:02:12.391Z,0.50
2019-03-15T22:04:42.238Z,0.20
2019-03-15T22:07:10.027Z,0.20
2019-03-15T22:09:38.355Z,0.30
2019-03-15T22:12:06.138Z,0.35
2019-03-15T22:14:34.350Z,0.47
2019-03-15T22:17:03.531Z,0.30
2019-03-15T22:19:34.391Z,0.53
2019-03-15T22:22:02.223Z,0.45
2019-03-15T22:24:29.984Z,0.30
2019-03-15T22:26:57.992Z,0.30
2019-03-15T22:29:26.434Z,0.30
2019-03-15T22:31:53.889Z,0.40
2019-03-15T22:34:24.518Z,0.30
2019-03-15T22:36:51.719Z,0.45
2019-03-15T22:39:26.887Z,0.40
2019-03-15T22:41:57.909Z,0.30
2019-03-15T22:44:27.402Z,0.30
2019-03-15T22:46:56.652Z,0.42
2019-03-15T22:49:24.321Z,0.40
2019-03-15T22:51:58.991Z,0.50
2019-03-15T22:54:27.731Z,0.40
2019-03-15T22:56:55.352Z,0.35
2019-03-15T22:59:22.831Z,0.33
2019-03-15T23:01:51.541Z,0.30
2019-03-15T23:04:19.096Z,0.40
2019-03-15T23:07:00.405Z,0.40
2019-03-15T23:09:29.675Z,0.40
2019-03-15T23:11:57.637Z,0.35
2019-03-15T23:14:25.164Z,0.40
2019-03-15T23:17:02.580Z,0.50
2019-03-15T23:19:38.054Z,0.40
2019-03-15T23:22:09.529Z,0.40
2019-03-15T23:24:39.667Z,0.42
2019-03-15T23:27:10.480Z,0.20
2019-03-15T23:29:40.388Z,0.30
2019-03-15T23:32:14.663Z,0.40
2019-03-15T23:34:44.515Z,0.40
2019-03-15T23:37:13.977Z,0.40
2019-03-15T23:39:41.372Z,0.65
2019-03-15T23:42:09.244Z,0.37
2019-03-15T23:44:37.123Z,0.30
2019-03-15T23:47:04.829Z,0.37
2019-03-15T23:49:32.655Z,0.30
2019-03-15T23:52:00.245Z,0.30
2019-03-15T23:54:28.180Z,0.30
2019-03-15T23:56:55.863Z,0.40
2019-03-15T23:59:23.437Z,0.20
